Terminal Aerodrome Forecast
Issued by NWS Jackson, MS

Home | Current Version | Previous Version | Text Only | Print | Product List | Glossary On
Versions: 1 2 3 4 5 6 7 8 9 10 11 12 13 14
000
FTUS44 KJAN 201144
TAFHBG
TAF
KHBG 201144Z 2012/2112 20004KT 6SM BR SCT008 BKN021
     FM201800 19010KT P6SM FEW025 SCT250
     FM210500 17008KT P6SM VCTS BKN015CB OVC100=

USA.gov is the U.S. government's official web portal to all federal, state and local government web resources and services.